Time;durP1;ratioP1;P1;durP2;ratioP2;P2;SDS_P1;SDS_P2;PMS_P1;PMS_P2;Temp;Humidity;BMP_temperature;BMP_pressure;BME280_temperature;BME280_humidity;BME280_pressure;Samples;Min_cycle;Max_cycle;Signal;HPM_P1;HPM_P2
2022/05/13 00:00:39;;;;;;;6.13;5.72;;;;;;;;;;5069309;28;20060;-69
2022/05/13 00:03:05;;;;;;;6.18;5.75;;;;;;;;;;5068350;28;20520;-69
2022/05/13 00:05:31;;;;;;;6.55;6.05;;;;;;;;;;5068255;28;20029;-70
2022/05/13 00:07:56;;;;;;;6.80;6.30;;;;;;;;;;5068697;28;20469;-69
2022/05/13 00:10:24;;;;;;;7.50;7.00;;;;;;;;;;5064763;28;20021;-61
2022/05/13 00:12:51;;;;;;;7.70;7.20;;;;;;;;;;5068139;28;20032;-61
2022/05/13 00:15:19;;;;;;;6.75;6.28;;;;;;;;;;5068840;28;20025;-61
2022/05/13 00:17:46;;;;;;;7.00;6.50;;;;;;;;;;5068926;28;20093;-61
2022/05/13 00:20:12;;;;;;;7.80;7.22;;;;;;;;;;5066485;28;20066;-61
2022/05/13 00:22:52;;;;;;;8.32;7.82;;;;;;;;;;5068982;28;20141;-61
2022/05/13 00:25:21;;;;;;;9.70;9.10;;;;;;;;;;5068815;28;20473;-61
2022/05/13 00:27:46;;;;;;;8.75;8.15;;;;;;;;;;5068273;28;20032;-61
2022/05/13 00:30:13;;;;;;;8.88;8.27;;;;;;;;;;5068146;28;20035;-61
2022/05/13 00:32:40;;;;;;;10.65;10.02;;;;;;;;;;5067985;28;20528;-61
2022/05/13 00:35:07;;;;;;;11.70;10.90;;;;;;;;;;5069303;28;20040;-61
2022/05/13 00:37:33;;;;;;;10.88;10.23;;;;;;;;;;5068297;28;20051;-61
2022/05/13 00:39:58;;;;;;;8.77;8.18;;;;;;;;;;5068583;28;20032;-62
2022/05/13 00:42:24;;;;;;;8.63;8.10;;;;;;;;;;5066567;28;20036;-62
2022/05/13 00:44:50;;;;;;;10.07;9.48;;;;;;;;;;5069308;28;20042;-62
2022/05/13 00:47:15;;;;;;;11.10;10.40;;;;;;;;;;5068110;28;20032;-62
2022/05/13 00:49:42;;;;;;;11.57;10.88;;;;;;;;;;5067901;28;20052;-61
2022/05/13 00:52:10;;;;;;;8.38;7.85;;;;;;;;;;5068623;28;20021;-62
2022/05/13 00:54:38;;;;;;;7.65;7.15;;;;;;;;;;5068283;28;20144;-62
2022/05/13 00:57:04;;;;;;;7.75;7.25;;;;;;;;;;5067570;28;20047;-61
2022/05/13 00:59:33;;;;;;;10.25;9.50;;;;;;;;;;5067451;28;20488;-62
2022/05/13 01:01:58;;;;;;;9.40;8.80;;;;;;;;;;5067796;28;20469;-62
2022/05/13 01:04:25;;;;;;;11.50;10.80;;;;;;;;;;5067526;28;20032;-62
2022/05/13 01:06:54;;;;;;;10.85;10.15;;;;;;;;;;5067026;28;20055;-62
2022/05/13 01:09:21;;;;;;;10.32;9.73;;;;;;;;;;5067880;28;20094;-62
2022/05/13 01:11:49;;;;;;;9.40;8.80;;;;;;;;;;5067380;28;20378;-62
2022/05/13 01:14:19;;;;;;;8.65;8.10;;;;;;;;;;5067037;28;20382;-62
2022/05/13 01:19:49;;;;;;;9.63;9.02;;;;;;;;;;5053784;28;20420;-62
2022/05/13 01:22:16;;;;;;;8.25;7.65;;;;;;;;;;5031462;28;20056;-62
2022/05/13 01:24:43;;;;;;;7.55;6.97;;;;;;;;;;5060148;28;20044;-63
2022/05/13 01:27:08;;;;;;;7.38;6.88;;;;;;;;;;5066660;28;20028;-62
2022/05/13 01:29:34;;;;;;;5.97;5.40;;;;;;;;;;5067166;28;20059;-62
2022/05/13 01:31:59;;;;;;;7.65;7.15;;;;;;;;;;5067381;28;20154;-62
2022/05/13 01:34:25;;;;;;;6.20;5.80;;;;;;;;;;5067122;28;20103;-62
2022/05/13 01:36:50;;;;;;;6.88;6.38;;;;;;;;;;5066764;28;20362;-62
2022/05/13 01:39:15;;;;;;;7.95;7.32;;;;;;;;;;5067129;28;20021;-62
2022/05/13 01:41:41;;;;;;;6.35;5.88;;;;;;;;;;5066426;28;20032;-63
2022/05/13 01:44:06;;;;;;;6.80;6.30;;;;;;;;;;5066608;28;20047;-62
2022/05/13 01:46:32;;;;;;;6.57;6.07;;;;;;;;;;5067032;28;20036;-63
2022/05/13 01:48:58;;;;;;;6.45;5.95;;;;;;;;;;5065699;28;20038;-63
2022/05/13 01:51:23;;;;;;;7.50;6.95;;;;;;;;;;5067106;28;20021;-63
2022/05/13 01:53:49;;;;;;;7.43;6.93;;;;;;;;;;5066656;28;20024;-63
2022/05/13 01:56:15;;;;;;;6.70;6.20;;;;;;;;;;5067240;28;20946;-63
2022/05/13 01:58:40;;;;;;;7.00;6.50;;;;;;;;;;5065218;28;20024;-62
2022/05/13 02:01:07;;;;;;;8.40;7.80;;;;;;;;;;5066403;28;20024;-63
2022/05/13 02:03:45;;;;;;;6.82;6.32;;;;;;;;;;5066408;28;20043;-63
2022/05/13 02:06:17;;;;;;;7.97;7.43;;;;;;;;;;5067170;28;20063;-63
2022/05/13 02:08:42;;;;;;;8.70;8.10;;;;;;;;;;5066640;28;20541;-62
2022/05/13 02:11:08;;;;;;;7.45;6.95;;;;;;;;;;5066388;28;20119;-63
2022/05/13 02:13:34;;;;;;;7.60;7.10;;;;;;;;;;5066680;28;20055;-63
2022/05/13 02:16:00;;;;;;;8.10;7.60;;;;;;;;;;5065713;28;20028;-63
2022/05/13 02:18:26;;;;;;;8.45;7.95;;;;;;;;;;5066053;28;20450;-64
2022/05/13 02:20:51;;;;;;;9.25;8.65;;;;;;;;;;5065217;28;20784;-63
2022/05/13 02:23:21;;;;;;;9.35;8.75;;;;;;;;;;5065968;28;20037;-63
2022/05/13 02:25:50;;;;;;;8.32;7.82;;;;;;;;;;5066346;28;20032;-63
2022/05/13 02:28:16;;;;;;;9.52;8.93;;;;;;;;;;5066579;28;20067;-63
2022/05/13 02:30:42;;;;;;;8.55;7.95;;;;;;;;;;5066429;28;20024;-62
2022/05/13 02:33:07;;;;;;;9.15;8.55;;;;;;;;;;5065496;28;20060;-63
2022/05/13 02:35:33;;;;;;;9.10;8.50;;;;;;;;;;5066404;28;20037;-63
2022/05/13 02:37:58;;;;;;;9.20;8.45;;;;;;;;;;5065076;28;20040;-63
2022/05/13 02:41:11;;;;;;;8.77;8.18;;;;;;;;;;5066065;28;20047;-63
2022/05/13 02:43:12;;;;;;;8.13;7.63;;;;;;;;;;5066075;28;20182;-63
2022/05/13 02:45:38;;;;;;;8.52;7.97;;;;;;;;;;5066366;28;20651;-63
2022/05/13 02:48:03;;;;;;;7.72;7.22;;;;;;;;;;5065422;28;20032;-63
2022/05/13 02:50:29;;;;;;;8.07;7.57;;;;;;;;;;5058743;28;20043;-63
2022/05/13 02:52:55;;;;;;;8.38;7.88;;;;;;;;;;5065897;28;20032;-63
2022/05/13 02:55:21;;;;;;;9.70;9.10;;;;;;;;;;5066714;28;20017;-63
2022/05/13 02:57:47;;;;;;;8.25;7.75;;;;;;;;;;5065730;28;20180;-63
2022/05/13 03:00:13;;;;;;;8.80;8.23;;;;;;;;;;5066384;28;20024;-63
2022/05/13 03:02:38;;;;;;;11.02;10.32;;;;;;;;;;5065952;28;20036;-63
2022/05/13 03:05:05;;;;;;;8.93;8.32;;;;;;;;;;5065681;28;20027;-63
2022/05/13 03:07:31;;;;;;;11.23;10.43;;;;;;;;;;5066495;28;20024;-63
2022/05/13 03:09:56;;;;;;;14.82;13.82;;;;;;;;;;5066055;28;20083;-63
2022/05/13 03:12:22;;;;;;;16.58;15.65;;;;;;;;;;5065544;28;21046;-63
2022/05/13 03:14:47;;;;;;;20.52;19.40;;;;;;;;;;5066226;28;20465;-63
2022/05/13 03:17:12;;;;;;;23.08;21.83;;;;;;;;;;5065859;28;20074;-63
2022/05/13 03:19:39;;;;;;;26.73;25.25;;;;;;;;;;5065596;28;20020;-63
2022/05/13 03:22:05;;;;;;;25.55;24.20;;;;;;;;;;5066002;28;20056;-63
2022/05/13 03:24:31;;;;;;;17.90;16.90;;;;;;;;;;5066373;28;20024;-63
2022/05/13 03:26:56;;;;;;;22.05;20.83;;;;;;;;;;5065745;28;20032;-63
2022/05/13 03:29:22;;;;;;;17.10;16.15;;;;;;;;;;5066764;28;20068;-63
2022/05/13 03:31:48;;;;;;;17.75;16.75;;;;;;;;;;5065732;28;20099;-63
2022/05/13 03:34:13;;;;;;;22.45;21.25;;;;;;;;;;5068567;28;20139;-63
2022/05/13 03:36:39;;;;;;;27.73;26.25;;;;;;;;;;5070236;28;20039;-63
2022/05/13 03:39:05;;;;;;;24.98;23.63;;;;;;;;;;5070287;28;20125;-63
2022/05/13 03:41:30;;;;;;;27.88;26.38;;;;;;;;;;5069844;28;20036;-63
2022/05/13 03:43:56;;;;;;;29.27;27.73;;;;;;;;;;5069645;28;20021;-63
2022/05/13 03:46:21;;;;;;;35.22;33.40;;;;;;;;;;5068580;28;20059;-63
2022/05/13 03:48:46;;;;;;;38.33;36.33;;;;;;;;;;5069049;28;20496;-63
2022/05/13 03:51:12;;;;;;;36.10;34.20;;;;;;;;;;5069042;28;20071;-63
2022/05/13 03:53:38;;;;;;;30.95;29.35;;;;;;;;;;5069985;28;20101;-63
2022/05/13 03:56:04;;;;;;;38.42;36.42;;;;;;;;;;5070006;28;20017;-63
2022/05/13 03:58:30;;;;;;;31.98;30.27;;;;;;;;;;5069491;28;20037;-63
2022/05/13 04:00:56;;;;;;;35.97;34.08;;;;;;;;;;5067813;28;20025;-63
2022/05/13 04:03:22;;;;;;;33.75;31.88;;;;;;;;;;5067936;28;20037;-63
2022/05/13 04:11:15;;;;;;;35.30;33.47;;;;;;;;;;5069294;28;20028;-63
2022/05/13 04:16:25;;;;;;;27.05;25.63;;;;;;;;;;5069963;28;20028;-64
2022/05/13 04:18:52;;;;;;;26.17;24.75;;;;;;;;;;5068979;28;20024;-63
2022/05/13 04:21:21;;;;;;;24.80;23.48;;;;;;;;;;5069494;28;20024;-64
2022/05/13 04:23:50;;;;;;;28.70;27.13;;;;;;;;;;5068834;28;20043;-64
2022/05/13 04:26:16;;;;;;;25.95;24.55;;;;;;;;;;5058876;28;20056;-64
2022/05/13 04:28:44;;;;;;;18.55;17.55;;;;;;;;;;5068773;28;20036;-63
2022/05/13 04:31:11;;;;;;;15.93;15.00;;;;;;;;;;5069484;28;20025;-63
2022/05/13 04:33:37;;;;;;;15.90;15.00;;;;;;;;;;5068118;28;20101;-63
2022/05/13 04:36:03;;;;;;;15.38;14.48;;;;;;;;;;5069583;28;20123;-63
2022/05/13 04:38:28;;;;;;;19.75;18.65;;;;;;;;;;5069128;28;20111;-64
2022/05/13 04:40:53;;;;;;;16.02;14.95;;;;;;;;;;5068293;28;20063;-63
2022/05/13 04:43:19;;;;;;;11.68;10.98;;;;;;;;;;5068884;28;20035;-63
2022/05/13 04:45:44;;;;;;;11.25;10.55;;;;;;;;;;5068324;28;20517;-64
2022/05/13 04:48:21;;;;;;;10.13;9.45;;;;;;;;;;5084836;28;20438;-64
2022/05/13 04:50:52;;;;;;;11.18;10.48;;;;;;;;;;5069063;28;20032;-64
2022/05/13 04:53:25;;;;;;;10.32;9.63;;;;;;;;;;5067842;28;20166;-64
2022/05/13 04:55:51;;;;;;;9.98;9.38;;;;;;;;;;5068846;28;20077;-64
2022/05/13 04:58:17;;;;;;;9.48;8.88;;;;;;;;;;5069131;28;20040;-64
2022/05/13 05:00:44;;;;;;;10.13;9.45;;;;;;;;;;5068407;28;20044;-64
2022/05/13 05:03:09;;;;;;;7.78;7.28;;;;;;;;;;5067473;28;20021;-64
2022/05/13 05:05:35;;;;;;;7.55;7.05;;;;;;;;;;5067522;28;20093;-64
2022/05/13 05:08:00;;;;;;;9.35;8.48;;;;;;;;;;5068404;28;20147;-64
2022/05/13 05:10:26;;;;;;;8.60;8.00;;;;;;;;;;5068372;28;20070;-64
2022/05/13 05:12:56;;;;;;;9.32;8.73;;;;;;;;;;5068057;28;20124;-64
2022/05/13 05:15:23;;;;;;;9.23;8.63;;;;;;;;;;5068492;28;20024;-64
2022/05/13 05:17:48;;;;;;;10.23;8.43;;;;;;;;;;5067848;28;20025;-64
2022/05/13 05:20:15;;;;;;;6.93;6.43;;;;;;;;;;5068010;28;20033;-64
2022/05/13 05:22:44;;;;;;;8.55;8.00;;;;;;;;;;5068108;28;20025;-64
2022/05/13 05:25:11;;;;;;;8.63;8.02;;;;;;;;;;5068192;28;20020;-64
2022/05/13 05:27:36;;;;;;;8.50;7.90;;;;;;;;;;5067726;28;20037;-64
2022/05/13 05:30:04;;;;;;;8.65;8.05;;;;;;;;;;5050475;28;20346;-65
2022/05/13 05:32:30;;;;;;;8.10;7.60;;;;;;;;;;5067213;28;20140;-64
2022/05/13 05:34:55;;;;;;;8.23;7.72;;;;;;;;;;5067421;28;20107;-64
2022/05/13 05:37:20;;;;;;;9.13;8.45;;;;;;;;;;5066947;28;20454;-64
2022/05/13 05:39:46;;;;;;;8.70;8.10;;;;;;;;;;5067681;28;20029;-64
2022/05/13 05:42:11;;;;;;;8.95;8.35;;;;;;;;;;5065466;28;20036;-64
2022/05/13 05:44:36;;;;;;;8.52;7.93;;;;;;;;;;5067679;28;20028;-64
2022/05/13 05:47:03;;;;;;;8.48;7.90;;;;;;;;;;5069172;28;20028;-64
2022/05/13 05:49:29;;;;;;;9.23;8.63;;;;;;;;;;5066459;28;20028;-64
2022/05/13 05:51:54;;;;;;;8.85;8.25;;;;;;;;;;5067427;28;20043;-65
2022/05/13 05:57:16;;;;;;;9.63;8.88;;;;;;;;;;5066495;28;20730;-64
2022/05/13 05:59:46;;;;;;;7.75;7.25;;;;;;;;;;5067550;28;20031;-64
2022/05/13 06:02:12;;;;;;;9.27;8.57;;;;;;;;;;5067514;28;20028;-63
2022/05/13 06:04:38;;;;;;;9.30;8.68;;;;;;;;;;5067205;28;20118;-63
2022/05/13 06:07:10;;;;;;;8.38;7.88;;;;;;;;;;5067028;28;20028;-63
2022/05/13 06:09:36;;;;;;;8.35;7.75;;;;;;;;;;5066970;28;20036;-63
2022/05/13 06:12:03;;;;;;;9.23;8.60;;;;;;;;;;5065873;28;20040;-64
2022/05/13 06:14:28;;;;;;;8.70;8.00;;;;;;;;;;5066616;28;20025;-64
2022/05/13 06:16:54;;;;;;;8.75;8.20;;;;;;;;;;5065920;28;20024;-63
2022/05/13 06:19:19;;;;;;;8.82;8.23;;;;;;;;;;5066671;28;20108;-63
2022/05/13 06:21:45;;;;;;;8.60;8.00;;;;;;;;;;5067420;28;20035;-64
2022/05/13 06:24:11;;;;;;;8.65;8.10;;;;;;;;;;5062484;28;20111;-64
2022/05/13 06:26:37;;;;;;;9.13;8.52;;;;;;;;;;5066288;28;20671;-64
2022/05/13 06:29:04;;;;;;;8.85;8.25;;;;;;;;;;5067462;28;20117;-64
2022/05/13 06:31:29;;;;;;;10.15;9.55;;;;;;;;;;5066839;28;20016;-63
2022/05/13 06:33:56;;;;;;;8.77;8.20;;;;;;;;;;5066813;28;20706;-63
2022/05/13 06:36:22;;;;;;;9.57;8.98;;;;;;;;;;5066954;28;20031;-63
2022/05/13 06:38:47;;;;;;;8.63;8.02;;;;;;;;;;5066627;28;20108;-63
2022/05/13 06:41:13;;;;;;;9.57;8.80;;;;;;;;;;5066980;28;20070;-64
2022/05/13 06:43:39;;;;;;;10.40;9.80;;;;;;;;;;5066393;28;20060;-63
2022/05/13 06:46:04;;;;;;;12.60;11.90;;;;;;;;;;5066369;28;20465;-63
2022/05/13 06:48:30;;;;;;;8.90;8.32;;;;;;;;;;5064885;28;20509;-63
2022/05/13 06:50:56;;;;;;;7.55;7.05;;;;;;;;;;5066032;28;20020;-63
2022/05/13 06:53:22;;;;;;;7.80;7.25;;;;;;;;;;5066341;28;20454;-63
2022/05/13 06:55:47;;;;;;;8.98;8.32;;;;;;;;;;5065788;28;20060;-63
2022/05/13 06:58:13;;;;;;;8.07;7.50;;;;;;;;;;5066110;28;20039;-63
2022/05/13 07:00:39;;;;;;;8.50;7.97;;;;;;;;;;5066122;28;20025;-64
2022/05/13 07:03:06;;;;;;;8.07;7.57;;;;;;;;;;5064934;28;20043;-63
2022/05/13 07:05:32;;;;;;;7.53;7.03;;;;;;;;;;5065735;28;20131;-63
2022/05/13 07:07:57;;;;;;;6.95;6.45;;;;;;;;;;5067630;28;20035;-63
2022/05/13 07:10:23;;;;;;;6.68;6.18;;;;;;;;;;5072027;28;20119;-63
2022/05/13 07:12:48;;;;;;;5.85;5.45;;;;;;;;;;5072003;28;20060;-63
2022/05/13 07:15:16;;;;;;;5.90;5.40;;;;;;;;;;5073108;28;20410;-64
2022/05/13 07:17:42;;;;;;;6.63;6.13;;;;;;;;;;5072004;28;20029;-63
2022/05/13 07:20:10;;;;;;;5.45;5.05;;;;;;;;;;5072512;28;20063;-62
2022/05/13 07:22:35;;;;;;;6.43;6.00;;;;;;;;;;5072604;28;20108;-63
2022/05/13 07:25:01;;;;;;;8.07;7.57;;;;;;;;;;5072178;28;20525;-63
2022/05/13 07:27:26;;;;;;;8.05;7.55;;;;;;;;;;5071405;28;20527;-64
2022/05/13 07:29:52;;;;;;;7.32;6.82;;;;;;;;;;5072699;28;20029;-63
2022/05/13 07:32:17;;;;;;;12.48;11.45;;;;;;;;;;5072729;28;20016;-63
2022/05/13 07:34:42;;;;;;;10.85;10.15;;;;;;;;;;5072201;28;20062;-63
2022/05/13 07:37:08;;;;;;;13.57;12.77;;;;;;;;;;5072545;28;20052;-63
2022/05/13 07:42:18;;;;;;;15.13;14.23;;;;;;;;;;5072505;28;20033;-63
2022/05/13 07:44:43;;;;;;;13.15;12.35;;;;;;;;;;5071246;28;20032;-64
2022/05/13 07:47:10;;;;;;;13.15;12.35;;;;;;;;;;5065015;28;20508;-63
2022/05/13 07:49:37;;;;;;;14.90;14.00;;;;;;;;;;5072073;28;20033;-63
2022/05/13 07:52:03;;;;;;;13.82;13.05;;;;;;;;;;5071688;28;20066;-62
2022/05/13 07:54:28;;;;;;;16.88;15.98;;;;;;;;;;5072296;28;20404;-62
2022/05/13 07:56:54;;;;;;;18.20;17.20;;;;;;;;;;5072047;28;20458;-62
2022/05/13 07:59:20;;;;;;;19.27;18.23;;;;;;;;;;5072278;28;20028;-63
2022/05/13 08:01:46;;;;;;;20.75;19.55;;;;;;;;;;5072519;28;20118;-62
2022/05/13 08:04:11;;;;;;;20.20;18.55;;;;;;;;;;5071027;28;20314;-63
2022/05/13 08:06:38;;;;;;;21.77;20.58;;;;;;;;;;5072368;28;20040;-64
2022/05/13 08:09:03;;;;;;;22.50;21.30;;;;;;;;;;5072101;28;20032;-63
2022/05/13 08:11:29;;;;;;;14.57;13.77;;;;;;;;;;5071994;28;20464;-63
2022/05/13 08:13:56;;;;;;;16.20;15.30;;;;;;;;;;5072060;28;20041;-62
2022/05/13 08:16:25;;;;;;;12.20;11.50;;;;;;;;;;5072368;28;20055;-60
2022/05/13 08:18:50;;;;;;;19.15;18.08;;;;;;;;;;5071168;28;20056;-60
2022/05/13 08:21:16;;;;;;;21.67;20.50;;;;;;;;;;5068909;28;20066;-62
2022/05/13 08:23:41;;;;;;;18.95;17.95;;;;;;;;;;5068634;28;20024;-61
2022/05/13 08:26:07;;;;;;;19.25;18.20;;;;;;;;;;5068749;28;20028;-60
2022/05/13 08:28:33;;;;;;;21.58;20.38;;;;;;;;;;5067672;28;20050;-62
2022/05/13 08:30:59;;;;;;;22.40;21.20;;;;;;;;;;5069518;28;20025;-61
2022/05/13 08:33:24;;;;;;;17.90;16.90;;;;;;;;;;5068425;28;20051;-61
2022/05/13 08:35:56;;;;;;;17.58;16.60;;;;;;;;;;5068789;28;20040;-60
2022/05/13 08:38:24;;;;;;;20.55;19.35;;;;;;;;;;5068951;28;20693;-61
2022/05/13 08:40:55;;;;;;;26.17;24.58;;;;;;;;;;5067781;28;20032;-62
2022/05/13 08:43:34;;;;;;;18.50;17.50;;;;;;;;;;5068717;28;20778;-61
2022/05/13 08:46:16;;;;;;;17.33;16.35;;;;;;;;;;5067575;28;20044;-61
2022/05/13 08:48:47;;;;;;;16.10;15.00;;;;;;;;;;5067397;28;20024;-61
2022/05/13 08:51:18;;;;;;;16.65;15.75;;;;;;;;;;5069810;28;20044;-62
2022/05/13 08:54:11;;;;;;;10.48;9.88;;;;;;;;;;5068177;28;20103;-61
2022/05/13 08:56:38;;;;;;;16.95;15.80;;;;;;;;;;5067956;28;20940;-62
2022/05/13 08:59:10;;;;;;;15.23;14.35;;;;;;;;;;5067650;28;20090;-63
2022/05/13 09:01:41;;;;;;;20.73;19.55;;;;;;;;;;5067196;28;20430;-63
2022/05/13 09:04:12;;;;;;;13.98;13.18;;;;;;;;;;5067916;28;20039;-63
2022/05/13 09:06:49;;;;;;;8.98;8.38;;;;;;;;;;5068277;28;20107;-63
2022/05/13 09:09:15;;;;;;;10.60;9.98;;;;;;;;;;5067921;28;20124;-62
2022/05/13 09:11:57;;;;;;;9.77;9.18;;;;;;;;;;5067552;28;20111;-62
2022/05/13 09:14:45;;;;;;;8.98;8.38;;;;;;;;;;5067938;28;20080;-63
2022/05/13 09:17:35;;;;;;;10.25;9.10;;;;;;;;;;5068013;28;20119;-62
2022/05/13 09:20:10;;;;;;;10.68;10.07;;;;;;;;;;5066132;28;20038;-63
2022/05/13 09:22:43;;;;;;;12.73;12.02;;;;;;;;;;5067282;28;20573;-63
2022/05/13 09:25:36;;;;;;;9.68;9.07;;;;;;;;;;5068017;28;20032;-63
2022/05/13 09:28:11;;;;;;;33.80;32.05;;;;;;;;;;5066909;28;20028;-62
2022/05/13 09:30:46;;;;;;;17.52;16.52;;;;;;;;;;5066766;28;20085;-63
2022/05/13 09:33:26;;;;;;;13.77;12.98;;;;;;;;;;5066971;28;20048;-63
2022/05/13 09:36:01;;;;;;;32.00;30.33;;;;;;;;;;5067094;28;20033;-62
2022/05/13 09:38:30;;;;;;;46.25;42.08;;;;;;;;;;5066907;28;20624;-63
2022/05/13 09:41:04;;;;;;;40.97;38.88;;;;;;;;;;5067770;28;20020;-63
2022/05/13 09:43:34;;;;;;;41.47;39.35;;;;;;;;;;5066660;28;20036;-62
2022/05/13 09:46:06;;;;;;;40.77;38.43;;;;;;;;;;5065961;28;20476;-62
2022/05/13 09:48:35;;;;;;;35.38;33.58;;;;;;;;;;5065619;28;20039;-63
2022/05/13 09:51:22;;;;;;;45.63;43.33;;;;;;;;;;5067053;28;20073;-63
2022/05/13 09:54:15;;;;;;;41.70;39.58;;;;;;;;;;5066978;28;20028;-62
2022/05/13 09:56:48;;;;;;;45.22;42.80;;;;;;;;;;5067099;28;20134;-63
2022/05/13 09:59:22;;;;;;;45.10;42.80;;;;;;;;;;5065687;28;20552;-63
2022/05/13 10:01:49;;;;;;;37.47;35.58;;;;;;;;;;5065986;28;20358;-63
2022/05/13 10:04:26;;;;;;;45.28;42.97;;;;;;;;;;5066389;28;20028;-62
2022/05/13 10:07:08;;;;;;;47.17;44.80;;;;;;;;;;5066833;28;20037;-62
2022/05/13 10:15:32;;;;;;;46.85;44.45;;;;;;;;;;5066446;28;20075;-62
2022/05/13 10:18:04;;;;;;;47.78;45.35;;;;;;;;;;5065692;28;20028;-63
2022/05/13 10:20:41;;;;;;;39.88;37.85;;;;;;;;;;5066692;28;20488;-63
2022/05/13 10:23:17;;;;;;;54.92;52.13;;;;;;;;;;5065392;28;20035;-63
2022/05/13 10:25:54;;;;;;;45.65;43.35;;;;;;;;;;5064103;28;20029;-62
2022/05/13 10:28:24;;;;;;;27.90;26.42;;;;;;;;;;5068531;28;20086;-62
2022/05/13 10:30:56;;;;;;;24.60;23.27;;;;;;;;;;5065988;28;20043;-63
2022/05/13 10:33:31;;;;;;;43.90;41.70;;;;;;;;;;5065708;28;20048;-63
2022/05/13 10:36:20;;;;;;;45.10;42.80;;;;;;;;;;5065893;28;20028;-62
2022/05/13 10:38:55;;;;;;;35.83;33.90;;;;;;;;;;5066314;28;20670;-62
2022/05/13 10:41:32;;;;;;;28.98;27.45;;;;;;;;;;5066275;28;20111;-62
2022/05/13 10:44:07;;;;;;;46.10;43.78;;;;;;;;;;5064875;28;20512;-62
2022/05/13 10:46:47;;;;;;;23.98;22.70;;;;;;;;;;5066211;28;20028;-62
2022/05/13 10:49:13;;;;;;;27.20;25.80;;;;;;;;;;5065985;28;20634;-62
2022/05/13 10:51:46;;;;;;;24.67;23.38;;;;;;;;;;5066490;28;20255;-63
2022/05/13 10:54:24;;;;;;;25.40;24.10;;;;;;;;;;5065962;28;20809;-62
2022/05/13 10:56:57;;;;;;;24.60;23.30;;;;;;;;;;5064921;28;20036;-63
2022/05/13 10:59:28;;;;;;;25.38;23.88;;;;;;;;;;5066158;28;20059;-63
2022/05/13 11:02:15;;;;;;;22.88;21.67;;;;;;;;;;5065056;28;20956;-63
2022/05/13 11:05:08;;;;;;;26.20;24.80;;;;;;;;;;5065597;28;20655;-63
2022/05/13 11:07:44;;;;;;;25.40;24.08;;;;;;;;;;5066180;28;20074;-63
2022/05/13 11:10:41;;;;;;;24.40;23.10;;;;;;;;;;5065400;28;20028;-62
2022/05/13 11:13:29;;;;;;;27.85;26.38;;;;;;;;;;5057646;28;20084;-62
2022/05/13 11:16:02;;;;;;;32.42;30.73;;;;;;;;;;5065787;28;20358;-63
2022/05/13 11:19:15;;;;;;;24.40;23.10;;;;;;;;;;5065470;28;20062;-63
2022/05/13 11:22:09;;;;;;;24.20;22.88;;;;;;;;;;5064794;28;20177;-62
2022/05/13 11:27:45;;;;;;;21.05;19.95;;;;;;;;;;5065245;28;20039;-63
2022/05/13 11:30:29;;;;;;;21.58;20.38;;;;;;;;;;5065507;28;20029;-62
2022/05/13 11:33:11;;;;;;;23.55;22.30;;;;;;;;;;5065465;28;20551;-62
2022/05/13 11:36:11;;;;;;;12.98;12.20;;;;;;;;;;5064402;28;20115;-63
2022/05/13 11:39:14;;;;;;;10.85;10.20;;;;;;;;;;5066112;28;20060;-63
2022/05/13 11:41:50;;;;;;;13.27;12.15;;;;;;;;;;5064297;28;20654;-62
2022/05/13 11:44:21;;;;;;;14.27;13.48;;;;;;;;;;5065320;28;20028;-63
2022/05/13 11:47:07;;;;;;;17.92;16.92;;;;;;;;;;5066637;28;20106;-63
2022/05/13 11:49:35;;;;;;;16.58;15.63;;;;;;;;;;5065077;28;20389;-62
2022/05/13 11:52:28;;;;;;;11.50;10.80;;;;;;;;;;5065070;28;20032;-63
2022/05/13 11:55:17;;;;;;;12.90;12.18;;;;;;;;;;5068177;28;20523;-63
2022/05/13 11:57:46;;;;;;;14.90;14.00;;;;;;;;;;5069109;28;20081;-62
2022/05/13 12:00:20;;;;;;;14.13;13.32;;;;;;;;;;5069335;28;20085;-63
2022/05/13 12:02:49;;;;;;;14.98;14.07;;;;;;;;;;5068237;28;20060;-62
2022/05/13 12:05:17;;;;;;;10.15;9.55;;;;;;;;;;5068691;28;20029;-63
2022/05/13 12:08:07;;;;;;;11.70;11.00;;;;;;;;;;5068030;28;20098;-63
2022/05/13 12:10:43;;;;;;;10.05;9.45;;;;;;;;;;5068554;28;20421;-63
2022/05/13 12:13:29;;;;;;;12.55;11.85;;;;;;;;;;5067595;28;20025;-64
2022/05/13 12:16:13;;;;;;;9.35;8.75;;;;;;;;;;5068937;28;20040;-64
2022/05/13 12:18:41;;;;;;;11.02;10.35;;;;;;;;;;5068971;28;20365;-63
2022/05/13 12:21:18;;;;;;;9.85;9.25;;;;;;;;;;5067367;28;20025;-64
2022/05/13 12:23:53;;;;;;;11.40;10.38;;;;;;;;;;5067908;28;20028;-63
2022/05/13 12:26:22;;;;;;;11.10;10.40;;;;;;;;;;5067193;28;20111;-62
2022/05/13 12:28:47;;;;;;;10.65;10.05;;;;;;;;;;5067066;28;20595;-64
2022/05/13 12:31:22;;;;;;;10.57;9.95;;;;;;;;;;5068649;28;20037;-63
2022/05/13 12:37:33;;;;;;;12.30;11.43;;;;;;;;;;5067760;28;20178;-63
2022/05/13 12:40:06;;;;;;;10.73;10.10;;;;;;;;;;5068236;28;20501;-66
2022/05/13 12:42:44;;;;;;;10.43;9.82;;;;;;;;;;5068325;28;20036;-67
2022/05/13 12:45:22;;;;;;;11.07;10.38;;;;;;;;;;5068302;28;20085;-68
2022/05/13 12:48:08;;;;;;;11.05;10.40;;;;;;;;;;5068221;28;20028;-68
2022/05/13 12:50:50;;;;;;;10.77;10.15;;;;;;;;;;5068304;28;20029;-66
2022/05/13 12:53:27;;;;;;;12.57;11.88;;;;;;;;;;5068418;28;20024;-67
2022/05/13 12:56:15;;;;;;;11.18;10.48;;;;;;;;;;5067885;28;20751;-66
2022/05/13 12:58:47;;;;;;;10.20;9.60;;;;;;;;;;5070606;28;20052;-66
2022/05/13 13:01:15;;;;;;;11.75;11.05;;;;;;;;;;5068069;28;20564;-66
2022/05/13 13:03:43;;;;;;;12.13;11.38;;;;;;;;;;5067091;28;20043;-67
2022/05/13 13:06:16;;;;;;;12.45;11.75;;;;;;;;;;5067133;28;20060;-66
2022/05/13 13:08:43;;;;;;;12.65;11.93;;;;;;;;;;5058267;28;20020;-66
2022/05/13 13:11:35;;;;;;;12.65;11.93;;;;;;;;;;5067387;28;20016;-67
2022/05/13 13:14:29;;;;;;;13.30;12.52;;;;;;;;;;5067423;28;20064;-67
2022/05/13 13:17:06;;;;;;;15.57;14.68;;;;;;;;;;5067420;28;20028;-66
2022/05/13 13:19:31;;;;;;;13.88;13.07;;;;;;;;;;5066259;28;20063;-66
2022/05/13 13:22:03;;;;;;;13.45;12.65;;;;;;;;;;5065575;28;20056;-66
2022/05/13 13:24:37;;;;;;;12.70;12.00;;;;;;;;;;5067569;28;20062;-66
2022/05/13 13:27:06;;;;;;;14.38;13.57;;;;;;;;;;5067085;28;20090;-66
2022/05/13 13:29:35;;;;;;;14.00;13.20;;;;;;;;;;5067207;28;20067;-66
2022/05/13 13:32:04;;;;;;;15.77;14.87;;;;;;;;;;5066381;28;20043;-67
2022/05/13 13:34:33;;;;;;;15.50;14.60;;;;;;;;;;5064779;28;20290;-67
2022/05/13 13:36:59;;;;;;;14.35;13.55;;;;;;;;;;5067041;28;20032;-67
2022/05/13 13:39:29;;;;;;;23.00;21.80;;;;;;;;;;5067520;28;20056;-63
2022/05/13 13:42:21;;;;;;;20.40;19.30;;;;;;;;;;5066214;28;20056;-63
2022/05/13 13:45:01;;;;;;;19.02;18.00;;;;;;;;;;5067943;28;20060;-63
2022/05/13 13:47:35;;;;;;;19.75;18.67;;;;;;;;;;5067465;28;20035;-61
2022/05/13 13:50:01;;;;;;;18.02;17.02;;;;;;;;;;5066110;28;20039;-62
2022/05/13 13:52:34;;;;;;;28.92;27.42;;;;;;;;;;5066896;28;20429;-61
2022/05/13 13:55:24;;;;;;;20.00;18.90;;;;;;;;;;5065673;28;20039;-62
2022/05/13 13:58:04;;;;;;;19.55;18.50;;;;;;;;;;5068769;28;20043;-62
2022/05/13 14:00:39;;;;;;;25.00;23.60;;;;;;;;;;5065149;28;20055;-63
2022/05/13 14:03:07;;;;;;;27.35;25.65;;;;;;;;;;5065662;28;20578;-63
2022/05/13 14:05:40;;;;;;;27.65;26.15;;;;;;;;;;5065839;28;20034;-63
2022/05/13 14:08:06;;;;;;;26.60;25.20;;;;;;;;;;5066521;28;20560;-63
2022/05/13 14:10:39;;;;;;;25.35;23.95;;;;;;;;;;5066364;28;20047;-63
2022/05/13 14:13:07;;;;;;;23.48;22.08;;;;;;;;;;5067062;28;20042;-62
2022/05/13 14:15:36;;;;;;;24.42;23.13;;;;;;;;;;5067228;28;20028;-61
2022/05/13 14:18:05;;;;;;;26.17;24.67;;;;;;;;;;5065434;28;20037;-62
2022/05/13 14:20:35;;;;;;;28.30;26.80;;;;;;;;;;5066235;28;20071;-61
2022/05/13 14:23:16;;;;;;;26.83;25.42;;;;;;;;;;5065634;28;20044;-62
2022/05/13 14:25:56;;;;;;;25.52;24.13;;;;;;;;;;5065450;28;20478;-62
2022/05/13 14:28:30;;;;;;;27.27;25.83;;;;;;;;;;5066125;28;20441;-61
2022/05/13 14:31:05;;;;;;;25.95;24.60;;;;;;;;;;5066353;28;20028;-60
2022/05/13 14:33:32;;;;;;;22.13;20.95;;;;;;;;;;5056338;28;20029;-61
2022/05/13 14:36:05;;;;;;;25.35;24.02;;;;;;;;;;5065912;28;20078;-62
2022/05/13 14:41:37;;;;;;;24.98;23.65;;;;;;;;;;5065726;28;20763;-61
2022/05/13 14:44:05;;;;;;;32.40;30.73;;;;;;;;;;5065686;28;20055;-62
2022/05/13 14:46:30;;;;;;;31.23;29.60;;;;;;;;;;5065049;28;20040;-62
2022/05/13 14:48:56;;;;;;;34.75;32.95;;;;;;;;;;5063647;28;20028;-61
2022/05/13 14:51:25;;;;;;;38.25;36.30;;;;;;;;;;5066086;28;20174;-61
2022/05/13 14:54:04;;;;;;;30.92;29.35;;;;;;;;;;5063586;28;20466;-61
2022/05/13 14:57:04;;;;;;;46.55;44.17;;;;;;;;;;5065032;28;20181;-61
2022/05/13 14:59:46;;;;;;;43.85;41.63;;;;;;;;;;5063258;28;20048;-61
2022/05/13 15:02:14;;;;;;;48.63;46.17;;;;;;;;;;5064691;28;20051;-60
2022/05/13 15:04:55;;;;;;;31.52;29.90;;;;;;;;;;5065299;28;20025;-60
2022/05/13 15:07:33;;;;;;;41.47;39.38;;;;;;;;;;5065309;28;20363;-61
2022/05/13 15:09:58;;;;;;;41.00;38.85;;;;;;;;;;5064030;28;20111;-61
2022/05/13 15:12:23;;;;;;;36.90;34.95;;;;;;;;;;5063873;28;20104;-61
2022/05/13 15:14:49;;;;;;;57.40;54.53;;;;;;;;;;5065274;28;20059;-61
2022/05/13 15:17:14;;;;;;;55.92;53.13;;;;;;;;;;5066142;28;20096;-61